Airfield :
LOGIN :

Register | Disclaimer

   EN    FR    IT 

 










Legend :    VFR   Marginal VFR   IFR   Intensive IFR   Very Intensive IFR
Visi :
Ceiling :
>= 8 km
>= 3000ft
5 to 8 km
1000 to 3000 ft
1500m to 5 km
500 to 1000 ft
800 to 1500m
200 to 500 ft
< 800m
< 200 ft
Symbols :   Thunderstorms  Fog  Heavy snow  Heavy precipitations  Wind > 20 kt
SIGMETs :     Misc.  Thunderstorms  Icing  Turbulence  Mountain Waves  Volcanic Ashes






- Airport Elevation : 355 ft
- IATA code : VBS


LIPO - Montichiari - Brescia

CURRENT METAR :
  • 050650Z AUTO 24005KT 210V270 9999 NCD 20/17 Q1007

EXPIRED METARs :
  • 050620Z AUTO 26005KT 9999 NCD 19/16 Q1007
  • 050550Z AUTO 26006KT 9999 NCD 18/16 Q1007
  • 050520Z AUTO 26006KT 9999 NCD 18/16 Q1007
  • 050450Z AUTO 28005KT 250V310 9999 NCD 16/16 Q1007
  • 050420Z AUTO 22005KT 9999 NCD 16/15 Q1007

TAF TAF LIPO
Valid from the 05 at 06:00 until the 06 at 06:00 UTC


050500Z 0506/0606 25008KT 9999 BKN030



MET'MAP, your aeronautical weather chart ! - Copyright ORBIFLY December 2007 - Disclaimer

ORBIFLY MET'MAP TEAM :

Programming & Development : Alexandra Zaïnal
Concept & original design : Baudouin d'Aumeries
Assistance for programming : Marc-Olivier Méhu
Technical & hardware support : Manuel Goepfert

Contact : metmap@orbifly.com




SOURCES & CREDITS :

   NOAA